createdAt,value
2024-05-09T12:07:30.413Z,18.99
2024-05-09T12:08:31.294Z,18.97
2024-05-09T12:09:31.293Z,19.08
2024-05-09T12:10:34.145Z,19.18
2024-05-09T12:11:31.302Z,19.37
2024-05-09T12:12:31.929Z,19.56
2024-05-09T12:13:31.273Z,19.81
2024-05-09T12:14:31.235Z,19.97
2024-05-09T12:15:31.264Z,20.10
2024-05-09T12:16:31.703Z,20.26
2024-05-09T12:17:31.297Z,20.44
2024-05-09T12:18:31.263Z,20.54
2024-05-09T12:19:31.211Z,20.56
2024-05-09T12:20:36.820Z,20.51
2024-05-09T12:21:31.248Z,20.48
2024-05-09T12:22:31.175Z,20.44
2024-05-09T12:23:31.133Z,20.49
2024-05-09T12:24:31.192Z,20.38
2024-05-09T12:25:31.146Z,20.32
2024-05-09T12:26:31.163Z,20.19
2024-05-09T12:27:31.187Z,20.06
2024-05-09T12:28:31.209Z,20.08
2024-05-09T12:29:31.100Z,20.16
2024-05-09T12:30:36.758Z,20.26
2024-05-09T12:31:31.213Z,20.28
2024-05-09T12:32:31.204Z,20.14
2024-05-09T12:33:31.189Z,20.03
2024-05-09T12:34:31.098Z,19.89
2024-05-09T12:35:31.051Z,19.97
2024-05-09T12:36:31.108Z,20.19
2024-05-09T12:37:31.049Z,20.11
2024-05-09T12:38:31.023Z,20.04
2024-05-09T12:39:31.124Z,19.93
2024-05-09T12:40:36.016Z,19.92
2024-05-09T12:41:31.022Z,19.89
2024-05-09T12:42:33.276Z,19.74
2024-05-09T12:43:31.095Z,19.66
2024-05-09T12:44:30.949Z,19.55
2024-05-09T12:45:31.135Z,19.49
2024-05-09T12:46:30.974Z,19.52
2024-05-09T12:47:31.097Z,19.68
2024-05-09T12:48:31.156Z,19.74
2024-05-09T12:49:31.034Z,19.82
2024-05-09T12:50:33.369Z,19.86
2024-05-09T12:51:30.960Z,19.76
2024-05-09T12:52:30.892Z,19.85
2024-05-09T12:53:30.890Z,19.92
2024-05-09T12:54:30.894Z,19.74
2024-05-09T12:55:37.246Z,19.67
2024-05-09T12:56:30.839Z,19.74
2024-05-09T12:57:30.892Z,19.92
2024-05-09T12:58:30.881Z,20.16
2024-05-09T12:59:30.814Z,20.23
2024-05-09T13:00:33.972Z,20.32
2024-05-09T13:01:30.925Z,20.48
2024-05-09T13:02:30.886Z,20.49
2024-05-09T13:03:31.118Z,20.53
2024-05-09T13:04:30.983Z,20.61
2024-05-09T13:05:31.004Z,20.72
2024-05-09T13:06:30.796Z,20.88
2024-05-09T13:07:30.763Z,21.04
2024-05-09T13:08:30.754Z,21.19
2024-05-09T13:09:30.752Z,21.36
2024-05-09T13:10:32.872Z,21.52
2024-05-09T13:11:30.800Z,21.62
2024-05-09T13:12:30.739Z,21.76
2024-05-09T13:13:30.680Z,21.92
2024-05-09T13:14:30.666Z,21.81
2024-05-09T13:15:31.270Z,21.55
2024-05-09T13:16:30.711Z,21.48
2024-05-09T13:17:30.832Z,21.48
2024-05-09T13:18:30.726Z,21.58
2024-05-09T13:19:30.683Z,21.69
2024-05-09T13:20:33.795Z,21.73
2024-05-09T13:21:30.645Z,21.77
2024-05-09T13:22:30.600Z,21.84
2024-05-09T13:23:30.608Z,21.80
2024-05-09T13:24:30.603Z,21.78
2024-05-09T13:25:30.609Z,21.54
2024-05-09T13:26:30.559Z,21.30
2024-05-09T13:27:30.599Z,21.31
2024-05-09T13:28:30.610Z,21.11
2024-05-09T13:29:30.546Z,20.97
2024-05-09T13:30:38.854Z,20.64
2024-05-09T13:31:30.665Z,20.36
2024-05-09T13:32:30.602Z,20.28
2024-05-09T13:33:30.666Z,20.36
2024-05-09T13:34:30.544Z,20.43
2024-05-09T13:35:30.495Z,20.41
2024-05-09T13:36:30.507Z,20.37
2024-05-09T13:37:30.472Z,20.32
2024-05-09T13:38:30.457Z,20.37
2024-05-09T13:39:30.475Z,20.32
2024-05-09T13:40:34.394Z,20.26
2024-05-09T13:41:30.449Z,20.25
2024-05-09T13:42:30.492Z,20.28
2024-05-09T13:43:29.630Z,20.59
2024-05-09T14:07:47.674Z,20.53
2024-05-09T14:08:48.639Z,20.46
2024-05-09T14:09:48.671Z,20.44
2024-05-09T14:10:48.898Z,20.48
2024-05-09T14:11:48.670Z,20.56
2024-05-09T14:12:48.693Z,20.69
2024-05-09T14:13:48.613Z,20.85
2024-05-09T14:14:48.580Z,21.00
2024-05-09T14:15:48.765Z,21.06
2024-05-09T14:16:48.730Z,21.11
2024-05-09T14:17:48.596Z,21.14
2024-05-09T14:18:48.642Z,21.12
2024-05-09T14:19:48.559Z,20.97
2024-05-09T14:20:48.541Z,20.90
2024-05-09T14:21:48.563Z,20.97
2024-05-09T14:22:48.517Z,21.09
2024-05-09T14:23:48.561Z,21.18
2024-05-09T14:24:48.593Z,21.30
2024-05-09T14:25:51.889Z,21.37
2024-05-09T14:26:54.536Z,21.44
2024-05-09T14:27:55.747Z,21.46
2024-05-09T14:28:54.490Z,21.46
2024-05-09T14:29:54.451Z,21.27
2024-05-09T14:30:48.497Z,21.31
2024-05-09T14:31:48.516Z,21.34
2024-05-09T14:32:48.564Z,21.48
2024-05-09T14:33:48.639Z,21.58
2024-05-09T14:34:48.643Z,21.48
2024-05-09T14:35:48.444Z,21.39
2024-05-09T14:36:48.435Z,21.48
2024-05-09T14:37:48.383Z,21.44
2024-05-09T14:38:48.370Z,21.46
2024-05-09T14:39:48.417Z,21.34
2024-05-09T14:40:48.521Z,21.24
2024-05-09T14:41:48.372Z,21.22
2024-05-09T14:42:55.032Z,21.29
2024-05-09T14:43:57.013Z,21.40
2024-05-09T14:44:54.322Z,21.48
2024-05-09T14:45:48.344Z,21.58
2024-05-09T14:46:55.328Z,21.55
2024-05-09T14:47:54.501Z,21.61
2024-05-09T14:48:48.453Z,21.71
2024-05-09T14:49:55.872Z,21.73
2024-05-09T14:50:48.253Z,21.77
2024-05-09T14:51:54.906Z,21.78
2024-05-09T14:52:55.913Z,21.62
2024-05-09T14:53:55.905Z,21.64
2024-05-09T14:55:00.212Z,21.70
2024-05-09T14:56:57.891Z,21.61
2024-05-09T14:59:23.507Z,21.43
2024-05-09T15:00:35.848Z,21.41
2024-05-09T15:01:24.553Z,21.46
2024-05-09T15:02:24.527Z,21.58
2024-05-09T15:03:32.544Z,21.44
2024-05-09T15:04:30.551Z,21.41
2024-05-09T15:05:30.697Z,21.31
2024-05-09T15:06:24.536Z,21.31
2024-05-09T15:07:24.469Z,21.34
2024-05-09T15:08:30.424Z,21.29
2024-05-09T15:09:30.960Z,21.11
2024-05-09T15:10:35.571Z,21.06
2024-05-09T15:11:24.391Z,21.11
2024-05-09T15:12:33.447Z,21.04
2024-05-09T15:14:16.421Z,21.06
2024-05-09T15:15:17.424Z,21.15
2024-05-09T15:16:17.468Z,21.16
2024-05-09T15:17:35.678Z,21.21
2024-05-09T15:18:36.869Z,21.16
2024-05-09T15:19:43.260Z,21.16
2024-05-09T15:20:37.699Z,21.22
2024-05-09T15:21:36.586Z,21.33
2024-05-09T15:22:42.551Z,21.41
2024-05-09T15:23:36.529Z,21.55
2024-05-09T15:24:36.547Z,21.58
2024-05-09T15:25:37.048Z,21.55
2024-05-09T15:26:36.572Z,21.44
2024-05-09T15:27:36.540Z,21.40
2024-05-09T15:28:36.470Z,21.40
2024-05-09T15:29:36.543Z,21.39
2024-05-09T15:30:37.065Z,21.34
2024-05-09T15:31:36.501Z,21.37
2024-05-09T15:32:36.540Z,21.44
2024-05-09T15:33:36.533Z,21.41
2024-05-09T15:35:15.735Z,21.48
2024-05-09T15:39:27.955Z,21.21
2024-05-09T16:24:08.469Z,21.09
2024-05-09T16:25:28.772Z,21.12
2024-05-09T16:26:29.752Z,21.14
2024-05-09T16:27:29.778Z,21.14
2024-05-09T16:28:29.792Z,21.09
2024-05-09T16:29:29.722Z,21.11
2024-05-09T16:30:34.904Z,21.12
2024-05-09T16:31:29.799Z,21.16
2024-05-09T16:32:29.792Z,21.18
2024-05-09T16:33:29.904Z,21.18
2024-05-09T16:34:29.746Z,21.14
2024-05-09T16:35:29.681Z,21.12
2024-05-09T16:36:29.744Z,20.94
2024-05-09T16:37:29.865Z,20.85
2024-05-09T16:38:29.637Z,20.61
2024-05-09T16:39:29.702Z,20.51
2024-05-09T16:40:36.872Z,20.49
2024-05-09T16:41:29.622Z,20.48
2024-05-09T16:42:29.662Z,20.44
2024-05-09T16:43:29.670Z,20.49
2024-05-09T16:44:30.600Z,20.43
2024-05-09T16:45:29.747Z,20.49
2024-05-09T16:46:29.567Z,20.51
2024-05-09T16:47:29.664Z,20.48
2024-05-09T16:48:29.627Z,20.48
2024-05-09T16:49:29.754Z,20.46
2024-05-09T16:50:33.251Z,20.36
2024-05-09T16:51:29.537Z,20.37
2024-05-09T16:52:29.495Z,20.38
2024-05-09T16:53:29.510Z,20.40
2024-05-09T16:54:29.626Z,20.36
2024-05-09T16:55:29.580Z,20.34
2024-05-09T16:56:29.464Z,20.38
2024-05-09T16:57:29.468Z,20.44
2024-05-09T16:58:29.538Z,20.44
2024-05-09T16:59:29.467Z,20.32
2024-05-09T17:00:38.365Z,20.25
2024-05-09T17:01:29.470Z,20.23
2024-05-09T17:02:29.568Z,20.19
2024-05-09T17:03:29.458Z,20.14
2024-05-09T17:04:29.593Z,20.16
2024-05-09T17:05:29.550Z,20.11
2024-05-09T17:06:29.401Z,20.18
2024-05-09T17:07:29.387Z,20.19
2024-05-09T17:08:29.390Z,20.16
2024-05-09T17:09:29.435Z,20.13
2024-05-09T17:10:33.222Z,20.04
2024-05-09T17:11:29.343Z,19.95
2024-05-09T17:12:29.309Z,19.92
2024-05-09T17:13:29.371Z,19.86
2024-05-09T17:14:29.324Z,19.83
2024-05-09T17:15:29.286Z,19.83
2024-05-09T17:16:29.403Z,19.85
2024-05-09T17:17:29.380Z,19.89
2024-05-09T17:18:29.305Z,19.83
2024-05-09T17:19:29.277Z,19.81
2024-05-09T17:20:33.877Z,19.81
2024-05-09T17:21:29.262Z,19.79
2024-05-09T17:22:29.224Z,19.71
2024-05-09T17:23:30.482Z,19.68
2024-05-09T17:24:30.194Z,19.71
2024-05-09T17:25:29.347Z,19.73
2024-05-09T17:26:29.193Z,19.71
2024-05-09T17:27:29.182Z,19.71
2024-05-09T17:28:29.198Z,19.71
2024-05-09T17:29:29.193Z,19.74
2024-05-09T17:30:35.014Z,19.73
2024-05-09T17:31:29.329Z,19.74
2024-05-09T17:32:29.195Z,19.74
2024-05-09T17:33:29.244Z,19.71
2024-05-09T17:34:29.281Z,19.66
2024-05-09T17:35:29.108Z,19.63
2024-05-09T17:36:29.088Z,19.63
2024-05-09T17:37:29.129Z,19.63
2024-05-09T17:38:29.080Z,19.66
2024-05-09T17:39:29.063Z,19.66
2024-05-09T17:40:33.741Z,19.64
2024-05-09T17:41:29.056Z,19.63
2024-05-09T17:42:29.027Z,19.63
2024-05-09T17:43:29.237Z,19.68
2024-05-09T17:44:29.015Z,19.61
2024-05-09T17:45:29.034Z,19.56
2024-05-09T17:46:29.089Z,19.49
2024-05-09T17:47:29.096Z,19.42
2024-05-09T17:48:29.073Z,19.42
2024-05-09T17:49:29.109Z,19.34
2024-05-09T17:50:35.419Z,19.33
2024-05-09T17:51:28.965Z,19.33
2024-05-09T17:52:28.966Z,19.30
2024-05-09T17:53:28.925Z,19.28
2024-05-09T17:54:28.909Z,19.21
2024-05-09T17:55:29.182Z,19.23
2024-05-09T17:56:28.901Z,19.21
2024-05-09T17:57:28.907Z,19.13
2024-05-09T17:58:28.943Z,19.11
2024-05-09T17:59:28.902Z,19.09
2024-05-09T18:00:37.062Z,19.08
2024-05-09T18:01:28.914Z,19.06
2024-05-09T18:02:28.979Z,19.02
2024-05-09T18:03:29.089Z,18.97
2024-05-09T18:04:31.100Z,18.95
2024-05-09T18:05:29.012Z,18.92
2024-05-09T18:06:28.796Z,18.88
2024-05-09T18:07:28.827Z,18.86
2024-05-09T18:08:28.778Z,18.80
2024-05-09T18:09:28.793Z,18.77
2024-05-09T18:10:35.486Z,18.72
2024-05-09T18:11:28.786Z,18.72
2024-05-09T18:12:28.748Z,18.71
2024-05-09T18:13:28.946Z,18.71
2024-05-09T18:14:28.739Z,18.70
2024-05-09T18:15:28.780Z,18.63
2024-05-09T18:16:28.772Z,18.62
2024-05-09T18:17:28.900Z,18.59
2024-05-09T18:18:28.751Z,18.60
2024-05-09T18:19:28.837Z,18.59
2024-05-09T18:20:37.752Z,18.57
2024-05-09T18:21:28.687Z,18.50
2024-05-09T18:22:28.694Z,18.47
2024-05-09T18:23:28.646Z,18.45
2024-05-09T18:24:28.703Z,18.41
2024-05-09T18:25:28.620Z,18.38
2024-05-09T18:26:28.602Z,18.38
2024-05-09T18:27:28.610Z,18.34
2024-05-09T18:28:28.816Z,18.30
2024-05-09T18:29:28.655Z,18.27
2024-05-09T18:30:34.375Z,18.25
2024-05-09T18:31:28.643Z,18.23
2024-05-09T18:32:28.791Z,18.20
2024-05-09T18:33:28.703Z,18.19
2024-05-09T18:34:28.710Z,18.17
2024-05-09T18:35:28.539Z,18.15
2024-05-09T18:36:28.513Z,18.10
2024-05-09T18:37:28.572Z,18.10
2024-05-09T18:38:28.489Z,18.08
2024-05-09T18:39:28.492Z,18.07
2024-05-09T18:40:34.054Z,18.04
2024-05-09T18:42:38.714Z,18.04
2024-05-09T18:43:44.999Z,18.02
2024-05-09T18:44:39.647Z,18.00
2024-05-09T18:45:39.998Z,17.97
2024-05-09T18:46:39.663Z,17.97
2024-05-09T18:47:39.642Z,17.94
2024-05-09T18:48:39.875Z,17.90
2024-05-09T18:49:39.642Z,17.85
2024-05-09T18:50:41.245Z,17.83
2024-05-09T18:51:39.637Z,17.78
2024-05-09T18:52:39.557Z,17.76
2024-05-09T18:53:40.820Z,17.75
2024-05-09T18:54:39.576Z,17.71
2024-05-09T18:55:39.539Z,17.68
2024-05-09T18:56:39.515Z,17.68
2024-05-09T18:57:39.538Z,17.65
2024-05-09T18:58:39.497Z,17.64
2024-05-09T18:59:39.478Z,17.60
2024-05-09T19:00:41.821Z,17.57
2024-05-09T19:01:39.553Z,17.56
2024-05-09T19:02:39.612Z,17.49
2024-05-09T19:03:39.742Z,17.45
2024-05-09T19:04:39.486Z,17.42
2024-05-09T19:05:40.374Z,17.42
2024-05-09T19:06:39.467Z,17.42
2024-05-09T19:07:39.416Z,17.38
2024-05-09T19:08:39.390Z,17.37
2024-05-09T19:09:39.425Z,17.33
2024-05-09T19:10:39.743Z,17.30
2024-05-09T19:11:39.449Z,17.29
2024-05-09T19:12:39.457Z,17.26
2024-05-09T19:13:39.388Z,17.24
2024-05-09T19:14:39.386Z,17.26
2024-05-09T19:15:40.092Z,17.21
2024-05-09T19:16:39.334Z,17.20
2024-05-09T19:17:39.447Z,17.17
2024-05-09T19:18:39.453Z,17.17
2024-05-09T19:19:39.375Z,17.12
2024-05-09T19:20:39.592Z,17.11
2024-05-09T19:21:42.081Z,17.06
2024-05-09T19:22:39.274Z,17.01
2024-05-09T19:23:46.828Z,16.99
2024-05-09T19:24:39.356Z,16.96
2024-05-09T19:25:39.253Z,16.94
2024-05-09T19:26:39.270Z,16.91
2024-05-09T19:27:39.257Z,16.90
2024-05-09T19:28:39.504Z,16.90
2024-05-09T19:29:39.211Z,16.86
2024-05-09T19:30:41.979Z,16.84
2024-05-09T19:31:39.194Z,16.83
2024-05-09T19:32:39.245Z,16.81
2024-05-09T19:33:39.243Z,16.78
2024-05-09T19:34:39.162Z,16.75
2024-05-09T19:35:39.210Z,16.72
2024-05-09T19:36:39.176Z,16.75
2024-05-09T19:37:40.903Z,16.72
2024-05-09T19:38:39.120Z,16.69
2024-05-09T19:39:39.112Z,16.62
2024-05-09T19:40:39.233Z,16.64
2024-05-09T19:41:39.113Z,16.60
2024-05-09T19:42:39.092Z,16.59
2024-05-09T19:43:39.113Z,16.57
2024-05-09T19:44:39.157Z,16.56
2024-05-09T19:45:39.130Z,16.56
2024-05-09T19:46:39.522Z,16.53
2024-05-09T19:47:39.069Z,16.54
2024-05-09T19:48:39.170Z,16.53
2024-05-09T19:49:39.071Z,16.54
2024-05-09T19:50:43.246Z,16.54
2024-05-09T19:51:39.181Z,16.50
2024-05-09T19:52:38.981Z,16.50
2024-05-09T19:53:38.966Z,16.50
2024-05-09T19:54:38.972Z,16.49
2024-05-09T19:55:39.009Z,16.42
2024-05-09T19:56:38.988Z,16.41
2024-05-09T19:57:38.981Z,16.39
2024-05-09T19:58:39.004Z,16.38
2024-05-09T19:59:38.941Z,16.34
2024-05-09T20:00:41.619Z,16.35
2024-05-09T20:01:39.137Z,16.34
2024-05-09T20:02:39.000Z,16.32
2024-05-09T20:03:39.072Z,16.31
2024-05-09T20:04:39.057Z,16.31
2024-05-09T20:05:39.626Z,16.31
2024-05-09T20:06:38.890Z,16.28
2024-05-09T20:07:38.854Z,16.25
2024-05-09T20:08:38.842Z,16.23
2024-05-09T20:09:38.944Z,16.20
2024-05-09T20:10:38.918Z,16.20
2024-05-09T20:11:38.902Z,16.15
2024-05-09T20:12:38.831Z,16.13
2024-05-09T20:13:38.828Z,16.12
2024-05-09T20:14:38.796Z,16.10
2024-05-09T20:15:39.023Z,16.08
2024-05-09T20:16:38.767Z,16.06
2024-05-09T20:17:38.795Z,16.01
2024-05-09T20:18:38.946Z,16.01
2024-05-09T20:19:38.899Z,15.97
2024-05-09T20:20:41.984Z,15.97
2024-05-09T20:21:38.756Z,15.95
2024-05-09T20:22:38.725Z,15.97
2024-05-09T20:23:38.720Z,15.95
2024-05-09T20:24:38.774Z,15.95
2024-05-09T20:25:38.673Z,15.94
2024-05-09T20:26:38.680Z,15.93
2024-05-09T20:27:38.717Z,15.91
2024-05-09T20:28:38.678Z,15.91
2024-05-09T20:29:38.639Z,15.90
2024-05-09T20:30:38.776Z,15.90
2024-05-09T20:31:38.620Z,15.90
2024-05-09T20:32:38.886Z,15.90
2024-05-09T20:33:38.802Z,15.87
2024-05-09T20:34:38.624Z,15.87
2024-05-09T20:35:38.600Z,15.85
2024-05-09T20:36:38.568Z,15.85
2024-05-09T20:37:38.622Z,15.85
2024-05-09T20:38:38.569Z,15.82
2024-05-09T20:39:38.589Z,15.82
2024-05-09T20:40:39.751Z,15.85
2024-05-09T20:41:38.529Z,15.85
2024-05-09T20:42:38.696Z,15.88
2024-05-09T20:43:38.532Z,15.90
2024-05-09T20:44:38.600Z,15.91
2024-05-09T20:45:39.223Z,15.91
2024-05-09T20:46:38.523Z,15.93
2024-05-09T20:47:38.756Z,15.95
2024-05-09T20:48:38.632Z,15.95
2024-05-09T20:49:38.516Z,15.94
2024-05-09T20:50:41.462Z,15.97
2024-05-09T20:51:38.687Z,15.95
2024-05-09T20:52:38.446Z,15.97
2024-05-09T20:53:38.425Z,15.95
2024-05-09T20:54:38.430Z,15.95
2024-05-09T20:55:38.378Z,15.97
2024-05-09T20:56:38.435Z,15.95
2024-05-09T20:57:38.438Z,15.95
2024-05-09T20:58:38.346Z,15.93
2024-05-09T20:59:38.388Z,15.91
2024-05-09T21:00:42.233Z,15.88
2024-05-09T21:01:38.401Z,15.88
2024-05-09T21:02:38.543Z,15.87
2024-05-09T21:03:38.573Z,15.83
2024-05-09T21:04:38.539Z,15.85
2024-05-09T21:05:38.808Z,15.87
2024-05-09T21:06:38.332Z,15.85
2024-05-09T21:07:38.294Z,15.85
2024-05-09T21:08:38.262Z,15.85
2024-05-09T21:09:38.278Z,15.83
2024-05-09T21:10:38.421Z,15.85
2024-05-09T21:11:38.246Z,15.83
2024-05-09T21:12:38.313Z,15.83
2024-05-09T21:13:38.283Z,15.85
2024-05-09T21:14:38.222Z,15.85
2024-05-09T21:15:38.354Z,15.83
2024-05-09T21:16:38.425Z,15.83
2024-05-09T21:17:38.337Z,15.83
2024-05-09T21:18:38.611Z,15.82
